createdAt,value
2023-03-31T00:02:44.919Z,58.42
2023-03-31T00:07:51.153Z,59.09
2023-03-31T00:12:53.867Z,59.01
2023-03-31T00:18:01.128Z,59.51
2023-03-31T00:23:06.820Z,58.69
2023-03-31T00:28:09.660Z,58.48
2023-03-31T00:33:12.737Z,59.00
2023-03-31T00:38:15.620Z,58.71
2023-03-31T00:43:39.974Z,58.82
2023-03-31T00:48:58.151Z,57.83
2023-03-31T00:54:06.405Z,58.00
2023-03-31T00:59:12.620Z,59.77
2023-03-31T01:04:22.923Z,58.43
2023-03-31T01:09:26.746Z,59.11
2023-03-31T01:14:32.344Z,58.95
2023-03-31T01:20:02.449Z,59.32
2023-03-31T01:25:34.686Z,58.60
2023-03-31T01:30:49.931Z,59.78
2023-03-31T01:36:16.945Z,59.16
2023-03-31T01:41:38.065Z,58.80
2023-03-31T01:46:56.053Z,59.18
2023-03-31T01:52:13.483Z,59.24
2023-03-31T01:57:20.034Z,59.04
2023-03-31T02:02:31.009Z,58.81
2023-03-31T02:07:44.874Z,58.41
2023-03-31T02:12:50.678Z,58.27
2023-03-31T02:17:56.660Z,58.25
2023-03-31T02:23:03.040Z,59.01
2023-03-31T02:28:13.108Z,58.92
2023-03-31T02:33:17.760Z,58.93
2023-03-31T02:38:21.100Z,59.48
2023-03-31T02:43:24.458Z,58.50
2023-03-31T02:48:41.071Z,58.41
2023-03-31T02:54:11.345Z,57.78
2023-03-31T02:59:42.635Z,58.08
2023-03-31T03:04:54.107Z,58.11
2023-03-31T03:10:07.712Z,59.12
2023-03-31T03:15:32.894Z,59.35
2023-03-31T03:20:36.219Z,58.62
2023-03-31T03:25:39.093Z,58.93
2023-03-31T03:30:42.780Z,59.87
2023-03-31T03:35:45.614Z,57.98
2023-03-31T03:40:50.205Z,58.75
2023-03-31T03:45:53.209Z,58.13
2023-03-31T03:50:55.866Z,58.71
2023-03-31T03:55:59.655Z,58.90
2023-03-31T04:01:02.930Z,57.70
2023-03-31T04:06:06.147Z,57.67
2023-03-31T04:11:18.095Z,57.00
2023-03-31T04:16:23.984Z,57.45
2023-03-31T04:21:26.705Z,56.50
2023-03-31T04:26:43.658Z,56.07
2023-03-31T04:31:48.068Z,55.71
2023-03-31T04:36:51.779Z,55.19
2023-03-31T04:41:55.536Z,53.19
2023-03-31T04:46:59.747Z,53.88
2023-03-31T04:52:03.422Z,54.52
2023-03-31T04:57:06.554Z,54.18
2023-03-31T05:02:09.537Z,54.19
2023-03-31T05:07:11.945Z,54.59
2023-03-31T05:12:14.925Z,53.56
2023-03-31T05:17:18.204Z,54.75
2023-03-31T05:22:22.207Z,52.54
2023-03-31T05:27:25.553Z,52.42
2023-03-31T05:32:29.289Z,50.45
2023-03-31T05:37:34.227Z,51.10
2023-03-31T05:42:48.545Z,51.92
2023-03-31T05:49:08.744Z,52.77
2023-03-31T05:54:14.433Z,54.11
2023-03-31T06:00:12.126Z,52.85
2023-03-31T06:05:17.805Z,51.17
2023-03-31T06:10:22.479Z,51.53
2023-03-31T06:15:29.702Z,50.16
2023-03-31T06:20:35.780Z,51.05
2023-03-31T06:25:50.253Z,51.94
2023-03-31T06:31:11.761Z,51.44
2023-03-31T06:36:18.997Z,53.66
2023-03-31T06:41:51.813Z,53.80
2023-03-31T06:47:03.576Z,53.37
2023-03-31T06:52:06.648Z,53.06
2023-03-31T06:57:10.602Z,52.28
2023-03-31T07:02:14.977Z,51.18
2023-03-31T07:07:18.551Z,51.68
2023-03-31T07:12:22.136Z,52.49
2023-03-31T07:17:25.789Z,51.79
2023-03-31T07:22:29.429Z,52.16
2023-03-31T07:27:39.578Z,52.78
2023-03-31T07:32:44.138Z,51.18
2023-03-31T07:38:03.963Z,51.68
2023-03-31T07:43:12.464Z,51.06
2023-03-31T07:48:15.121Z,50.86
2023-03-31T07:53:19.029Z,52.27
2023-03-31T07:58:22.043Z,52.91
2023-03-31T08:03:25.437Z,52.80
2023-03-31T08:08:28.444Z,52.75
2023-03-31T08:13:31.773Z,52.53
2023-03-31T08:18:35.976Z,53.17
2023-03-31T08:23:39.107Z,52.54
2023-03-31T08:28:43.407Z,52.93
2023-03-31T08:33:55.860Z,53.23
2023-03-31T08:38:59.180Z,54.25
2023-03-31T08:44:09.978Z,53.71
2023-03-31T08:49:17.183Z,53.24
2023-03-31T08:54:26.590Z,53.13
2023-03-31T08:59:33.536Z,52.68
2023-03-31T09:05:08.198Z,51.46
2023-03-31T09:10:23.976Z,51.45
2023-03-31T09:15:39.727Z,50.68
2023-03-31T09:20:50.040Z,50.98
2023-03-31T09:25:58.073Z,51.41
2023-03-31T09:31:28.408Z,51.74
2023-03-31T09:37:47.517Z,50.78
2023-03-31T09:43:03.196Z,51.08
2023-03-31T09:48:14.036Z,50.93
2023-03-31T09:53:40.607Z,50.78
2023-03-31T09:58:47.272Z,51.50
2023-03-31T10:03:54.346Z,50.58
2023-03-31T10:09:03.991Z,51.54
2023-03-31T10:14:17.693Z,52.26
2023-03-31T10:19:24.676Z,51.90
2023-03-31T10:24:37.592Z,51.54
2023-03-31T10:29:42.203Z,52.60
2023-03-31T10:34:45.101Z,52.08
2023-03-31T10:39:49.717Z,51.24
2023-03-31T10:45:37.049Z,51.31
2023-03-31T10:51:14.929Z,51.66
2023-03-31T10:56:48.999Z,51.32
2023-03-31T11:02:14.831Z,52.55
2023-03-31T11:07:45.453Z,52.79
2023-03-31T11:13:33.312Z,51.14
2023-03-31T11:19:23.160Z,51.24
2023-03-31T11:24:41.622Z,51.04
2023-03-31T11:29:44.712Z,50.42
2023-03-31T11:35:00.390Z,49.56
2023-03-31T11:40:15.398Z,50.11
2023-03-31T11:45:42.114Z,50.10
2023-03-31T11:50:50.111Z,50.37
2023-03-31T11:55:56.382Z,50.67
2023-03-31T12:01:18.525Z,50.41
2023-03-31T12:06:26.169Z,49.77
2023-03-31T12:11:53.731Z,50.77
2023-03-31T12:17:05.996Z,50.89
2023-03-31T12:22:13.157Z,50.89
2023-03-31T12:27:40.919Z,51.22
2023-03-31T12:33:11.540Z,52.07
2023-03-31T12:46:25.750Z,54.01
2023-03-31T12:51:45.585Z,53.82
2023-03-31T12:57:02.247Z,53.82
2023-03-31T13:02:27.261Z,53.26
2023-03-31T13:07:30.718Z,53.61
2023-03-31T13:12:35.898Z,52.00
2023-03-31T13:17:42.821Z,53.10
2023-03-31T13:22:50.851Z,52.86
2023-03-31T13:27:54.622Z,52.64
2023-03-31T13:33:25.234Z,53.49
2023-03-31T13:38:27.525Z,52.68
2023-03-31T13:43:33.307Z,52.99
2023-03-31T13:49:02.132Z,54.14
2023-03-31T13:54:20.403Z,54.13
2023-03-31T14:00:01.892Z,53.99
2023-03-31T14:05:31.976Z,54.00
2023-03-31T14:10:37.720Z,54.33
2023-03-31T14:16:00.090Z,53.75
2023-03-31T14:21:06.543Z,54.75
2023-03-31T14:26:18.448Z,54.05
2023-03-31T14:31:45.175Z,53.39
2023-03-31T14:36:51.849Z,54.45
2023-03-31T14:41:58.327Z,54.65
2023-03-31T14:47:00.839Z,53.93
2023-03-31T14:52:20.232Z,55.15
2023-03-31T14:57:33.035Z,53.91
2023-03-31T15:02:39.544Z,54.73
2023-03-31T15:07:41.908Z,54.42
2023-03-31T15:12:44.445Z,54.18
2023-03-31T15:17:48.021Z,54.79
2023-03-31T15:22:50.980Z,54.53
2023-03-31T15:28:01.867Z,54.60
2023-03-31T15:33:18.381Z,55.04
2023-03-31T15:38:23.748Z,55.81
2023-03-31T15:43:52.745Z,54.90
2023-03-31T15:48:56.221Z,54.70
2023-03-31T15:53:59.868Z,55.54
2023-03-31T15:59:07.086Z,55.92
2023-03-31T16:04:13.450Z,55.61
2023-03-31T16:09:24.448Z,55.05
2023-03-31T16:14:33.449Z,54.87
2023-03-31T16:19:46.672Z,55.60
2023-03-31T16:24:49.751Z,54.71
2023-03-31T16:30:07.752Z,54.27
2023-03-31T16:35:10.988Z,53.00
2023-03-31T16:40:14.065Z,52.26
2023-03-31T16:45:16.862Z,52.23
2023-03-31T16:50:19.584Z,51.70
2023-03-31T16:55:22.045Z,52.12
2023-03-31T17:00:24.451Z,51.41
2023-03-31T17:05:26.817Z,51.58
2023-03-31T17:10:29.279Z,52.29
2023-03-31T17:15:32.029Z,51.98
2023-03-31T17:20:35.105Z,51.75
2023-03-31T17:25:38.054Z,52.53
2023-03-31T17:30:44.402Z,51.93
2023-03-31T17:35:46.969Z,52.78
2023-03-31T17:40:49.359Z,52.78
2023-03-31T17:45:51.694Z,52.10
2023-03-31T17:50:54.820Z,52.77
2023-03-31T17:55:57.787Z,53.42
2023-03-31T18:01:00.616Z,54.42
2023-03-31T18:06:08.348Z,54.61
2023-03-31T18:11:11.537Z,53.90
2023-03-31T18:16:14.125Z,53.38
2023-03-31T18:21:16.479Z,53.12
2023-03-31T18:26:19.965Z,53.89
2023-03-31T18:31:22.825Z,54.03
2023-03-31T18:36:28.644Z,54.78
2023-03-31T18:41:31.372Z,55.38
2023-03-31T18:46:33.700Z,54.90
2023-03-31T18:51:36.320Z,54.73
2023-03-31T18:56:38.630Z,53.95
2023-03-31T19:01:41.085Z,55.00
2023-03-31T19:06:43.444Z,55.07
2023-03-31T19:11:46.012Z,55.70
2023-03-31T19:16:48.561Z,55.82
2023-03-31T19:21:52.614Z,55.33
2023-03-31T19:26:58.080Z,55.71
2023-03-31T19:32:00.696Z,56.11
2023-03-31T19:37:04.089Z,56.15
2023-03-31T19:42:06.607Z,55.28
2023-03-31T19:47:08.936Z,55.30
2023-03-31T19:52:11.353Z,55.90
2023-03-31T19:57:13.778Z,56.23
2023-03-31T20:02:16.764Z,55.94
2023-03-31T20:07:19.930Z,56.64
2023-03-31T20:12:24.102Z,55.84
2023-03-31T20:17:26.714Z,56.86
2023-03-31T20:22:30.064Z,55.41
2023-03-31T20:27:32.805Z,55.33
2023-03-31T20:32:35.885Z,55.01
2023-03-31T20:37:38.327Z,56.08
2023-03-31T20:42:41.810Z,55.47
2023-03-31T20:47:44.431Z,56.38
2023-03-31T20:52:47.933Z,56.78
2023-03-31T20:57:50.749Z,57.05
2023-03-31T21:02:54.332Z,57.38
2023-03-31T21:07:57.104Z,57.65
2023-03-31T21:13:00.289Z,58.90
2023-03-31T21:18:03.508Z,56.86
2023-03-31T21:23:06.065Z,57.81
2023-03-31T21:28:08.939Z,58.57
2023-03-31T21:33:12.429Z,57.97
2023-03-31T21:38:16.871Z,57.20
2023-03-31T21:43:20.733Z,58.21
2023-03-31T21:48:25.590Z,57.76
2023-03-31T21:53:30.012Z,58.64
2023-03-31T21:58:33.141Z,57.59
2023-03-31T22:03:39.143Z,57.37
2023-03-31T22:08:41.745Z,57.05
2023-03-31T22:13:45.156Z,58.50
2023-03-31T22:18:50.745Z,57.87
2023-03-31T22:23:56.119Z,57.99
2023-03-31T22:28:59.566Z,58.66
2023-03-31T22:34:03.032Z,57.46
2023-03-31T22:39:05.971Z,56.96
2023-03-31T22:44:10.056Z,56.38
2023-03-31T22:49:13.593Z,57.92
2023-03-31T22:54:17.923Z,57.58
2023-03-31T22:59:21.379Z,57.74
2023-03-31T23:04:24.033Z,57.90
2023-03-31T23:09:27.566Z,56.70
2023-03-31T23:14:29.908Z,57.00
2023-03-31T23:19:32.495Z,56.17
2023-03-31T23:24:34.819Z,57.70
2023-03-31T23:29:37.310Z,57.65
2023-03-31T23:34:42.060Z,58.57
2023-03-31T23:39:44.594Z,58.16
2023-03-31T23:44:48.899Z,58.43
2023-03-31T23:49:51.406Z,58.02
2023-03-31T23:54:53.679Z,58.02
2023-03-31T23:59:57.002Z,59.07
